createdAt,value
2019-03-23T00:00:35.481Z,298.32
2019-03-23T00:03:05.363Z,282.15
2019-03-23T00:05:34.983Z,262.77
2019-03-23T00:08:05.149Z,283.20
2019-03-23T00:10:36.759Z,270.37
2019-03-23T00:13:06.387Z,270.17
2019-03-23T00:15:35.995Z,258.07
2019-03-23T00:18:09.659Z,196.90
2019-03-23T00:20:39.313Z,189.37
2019-03-23T00:23:08.993Z,189.90
2019-03-23T00:25:39.433Z,182.17
2019-03-23T00:28:09.032Z,169.97
2019-03-23T00:30:38.643Z,156.87
2019-03-23T00:33:08.279Z,155.65
2019-03-23T00:35:38.542Z,152.22
2019-03-23T00:38:08.237Z,159.30
2019-03-23T00:40:38.019Z,164.82
2019-03-23T00:43:07.683Z,168.32
2019-03-23T00:45:37.259Z,169.60
2019-03-23T00:48:06.964Z,174.97
2019-03-23T00:50:36.604Z,180.65
2019-03-23T00:53:06.236Z,187.53
2019-03-23T00:55:35.899Z,190.85
2019-03-23T00:58:05.524Z,193.25
2019-03-23T01:00:35.219Z,196.72
2019-03-23T01:03:04.848Z,191.73
2019-03-23T01:05:34.490Z,196.82
2019-03-23T01:08:04.187Z,205.72
2019-03-23T01:10:33.871Z,192.80
2019-03-23T01:13:04.316Z,192.37
2019-03-23T01:15:33.941Z,191.40
2019-03-23T01:18:03.574Z,192.57
2019-03-23T01:20:33.294Z,184.13
2019-03-23T01:23:02.879Z,186.22
2019-03-23T01:25:32.506Z,181.75
2019-03-23T01:28:02.123Z,174.97
2019-03-23T01:30:31.746Z,160.57
2019-03-23T01:33:01.354Z,152.57
2019-03-23T01:35:30.975Z,151.47
2019-03-23T01:38:00.616Z,149.95
2019-03-23T01:40:30.248Z,148.78
2019-03-23T01:42:59.859Z,152.53
2019-03-23T01:45:29.467Z,148.72
2019-03-23T01:47:59.073Z,161.37
2019-03-23T01:50:28.683Z,155.12
2019-03-23T01:52:58.293Z,131.97
2019-03-23T01:55:27.915Z,128.60
2019-03-23T01:57:57.521Z,124.20
2019-03-23T02:00:27.229Z,136.45
2019-03-23T02:02:56.846Z,129.95
2019-03-23T02:05:26.540Z,132.75
2019-03-23T02:07:56.087Z,118.28
2019-03-23T02:10:25.718Z,108.97
2019-03-23T02:12:55.332Z,104.20
2019-03-23T02:15:25.297Z,93.12
2019-03-23T02:17:55.127Z,89.50
2019-03-23T02:20:24.818Z,91.32
2019-03-23T02:22:54.608Z,83.82
2019-03-23T02:25:24.225Z,87.12
2019-03-23T02:27:53.833Z,84.92
2019-03-23T02:30:23.549Z,81.95
2019-03-23T02:32:53.344Z,83.47
2019-03-23T02:35:22.947Z,83.40
2019-03-23T02:37:52.552Z,85.10
2019-03-23T02:40:22.171Z,86.97
2019-03-23T02:42:51.805Z,84.32
2019-03-23T02:45:21.394Z,91.72
2019-03-23T02:47:51.024Z,87.92
2019-03-23T02:50:20.657Z,88.42
2019-03-23T02:52:51.390Z,88.47
2019-03-23T02:55:21.003Z,89.60
2019-03-23T02:57:50.612Z,97.85
2019-03-23T03:00:20.230Z,88.27
2019-03-23T03:02:49.837Z,86.67
2019-03-23T03:05:19.504Z,95.77
2019-03-23T03:07:49.114Z,85.70
2019-03-23T03:10:30.721Z,82.60
2019-03-23T03:13:00.328Z,85.72
2019-03-23T03:15:29.944Z,91.67
2019-03-23T03:17:59.557Z,88.55
2019-03-23T03:20:29.189Z,88.17
2019-03-23T03:22:58.822Z,87.82
2019-03-23T03:25:28.453Z,85.20
2019-03-23T03:27:58.056Z,88.58
2019-03-23T03:30:27.695Z,83.47
2019-03-23T03:32:57.381Z,83.62
2019-03-23T03:35:27.063Z,86.40
2019-03-23T03:37:57.369Z,85.53
2019-03-23T03:40:27.432Z,90.92
2019-03-23T03:42:57.131Z,88.20
2019-03-23T03:45:28.426Z,83.45
2019-03-23T03:47:58.093Z,84.05
2019-03-23T03:50:27.718Z,84.45
2019-03-23T03:52:57.483Z,86.70
2019-03-23T03:55:27.102Z,81.90
2019-03-23T03:57:56.727Z,83.80
2019-03-23T04:00:27.867Z,87.40
2019-03-23T04:02:57.592Z,84.92
2019-03-23T04:05:27.207Z,89.32
2019-03-23T04:08:09.966Z,83.78
2019-03-23T04:10:28.059Z,91.22
2019-03-23T04:12:57.823Z,96.02
2019-03-23T04:15:27.489Z,91.02
2019-03-23T04:17:57.100Z,95.83
2019-03-23T04:20:26.708Z,92.22
2019-03-23T04:22:56.328Z,100.07
2019-03-23T04:25:26.011Z,97.72
2019-03-23T04:27:55.623Z,98.47
2019-03-23T04:30:25.255Z,103.70
2019-03-23T04:32:54.890Z,100.15
2019-03-23T04:35:24.507Z,114.17
2019-03-23T04:37:54.139Z,106.25
2019-03-23T04:40:25.386Z,103.83
2019-03-23T04:42:55.048Z,103.60
2019-03-23T04:45:24.665Z,106.70
2019-03-23T04:47:54.311Z,105.65
2019-03-23T04:50:23.928Z,112.90
2019-03-23T04:52:53.555Z,107.70
2019-03-23T04:55:23.164Z,106.95
2019-03-23T04:57:52.827Z,108.97
2019-03-23T05:00:22.514Z,119.40
2019-03-23T05:02:52.139Z,117.55
2019-03-23T05:05:21.748Z,115.50
2019-03-23T05:07:51.387Z,124.65
2019-03-23T05:10:21.096Z,123.40
2019-03-23T05:12:50.729Z,120.50
2019-03-23T05:15:20.341Z,123.45
2019-03-23T05:17:49.962Z,124.15
2019-03-23T05:20:30.922Z,125.15
2019-03-23T05:23:00.627Z,126.65
2019-03-23T05:25:30.768Z,129.70
2019-03-23T05:28:00.399Z,135.35
2019-03-23T05:30:30.024Z,128.70
2019-03-23T05:32:59.679Z,135.43
2019-03-23T05:35:29.293Z,126.20
2019-03-23T05:37:58.972Z,135.00
2019-03-23T05:40:28.606Z,135.72
2019-03-23T05:42:58.242Z,140.75
2019-03-23T05:45:27.840Z,137.03
2019-03-23T05:47:57.475Z,140.45
2019-03-23T05:50:27.089Z,130.35
2019-03-23T05:52:56.719Z,127.50
2019-03-23T05:55:26.327Z,123.15
2019-03-23T05:57:56.018Z,133.90
2019-03-23T06:00:25.680Z,138.55
2019-03-23T06:02:55.308Z,138.77
2019-03-23T06:05:24.924Z,123.47
2019-03-23T06:07:54.582Z,126.50
2019-03-23T06:10:24.215Z,124.20
2019-03-23T06:12:53.853Z,117.67
2019-03-23T06:15:23.483Z,122.45
2019-03-23T06:17:53.095Z,110.97
2019-03-23T06:20:22.765Z,119.25
2019-03-23T06:22:52.448Z,119.33
2019-03-23T06:25:22.073Z,118.60
2019-03-23T06:27:51.683Z,115.15
2019-03-23T06:30:21.328Z,88.67
2019-03-23T06:32:50.967Z,103.40
2019-03-23T06:35:20.671Z,109.83
2019-03-23T06:37:50.285Z,105.55
2019-03-23T06:40:19.966Z,113.17
2019-03-23T06:42:59.421Z,105.52
2019-03-23T06:45:21.203Z,105.17
2019-03-23T06:47:50.861Z,107.05
2019-03-23T06:50:20.475Z,108.78
2019-03-23T06:52:50.101Z,101.02
2019-03-23T06:55:19.717Z,99.80
2019-03-23T06:57:49.347Z,102.20
2019-03-23T07:00:19.530Z,99.58
2019-03-23T07:02:49.140Z,100.85
2019-03-23T07:05:18.752Z,99.60
2019-03-23T07:07:48.420Z,102.90
2019-03-23T07:10:18.050Z,105.60
2019-03-23T07:12:47.647Z,132.27
2019-03-23T07:15:20.221Z,106.05
2019-03-23T07:17:48.511Z,105.63
2019-03-23T07:20:19.294Z,106.92
2019-03-23T07:22:48.904Z,102.85
2019-03-23T07:25:18.611Z,113.68
2019-03-23T07:27:48.262Z,118.00
2019-03-23T07:30:18.523Z,119.00
2019-03-23T07:32:48.179Z,111.45
2019-03-23T07:35:17.852Z,117.55
2019-03-23T07:37:47.548Z,113.60
2019-03-23T07:40:17.762Z,115.80
2019-03-23T07:42:47.422Z,111.37
2019-03-23T07:45:17.148Z,111.32
2019-03-23T07:47:46.771Z,101.12
2019-03-23T07:50:16.539Z,111.62
2019-03-23T07:52:46.231Z,110.12
2019-03-23T07:55:16.718Z,111.88
2019-03-23T07:57:46.747Z,111.75
2019-03-23T08:00:21.248Z,112.32
2019-03-23T08:02:50.941Z,107.90
2019-03-23T08:05:21.914Z,106.45
2019-03-23T08:07:51.538Z,107.35
2019-03-23T08:10:32.661Z,104.40
2019-03-23T08:13:02.510Z,107.87
2019-03-23T08:15:32.198Z,106.60
2019-03-23T08:18:02.322Z,102.70
2019-03-23T08:20:32.142Z,96.75
2019-03-23T08:23:01.918Z,98.58
2019-03-23T08:25:31.573Z,99.77
2019-03-23T08:28:02.269Z,97.70
2019-03-23T08:30:31.887Z,95.42
2019-03-23T08:33:01.496Z,98.10
2019-03-23T08:35:31.188Z,101.47
2019-03-23T08:38:00.836Z,92.65
2019-03-23T08:40:30.546Z,93.95
2019-03-23T08:43:00.521Z,86.92
2019-03-23T08:45:30.338Z,90.10
2019-03-23T08:48:00.071Z,84.00
2019-03-23T08:50:30.206Z,85.05
2019-03-23T08:52:59.816Z,90.83
2019-03-23T08:55:30.853Z,93.58
2019-03-23T08:58:00.525Z,90.77
2019-03-23T09:00:30.263Z,89.60
2019-03-23T09:03:03.774Z,94.80
2019-03-23T09:05:33.727Z,83.72
2019-03-23T09:08:04.630Z,83.33
2019-03-23T09:10:34.338Z,87.62
2019-03-23T09:13:04.118Z,88.87
2019-03-23T09:15:33.798Z,88.37
2019-03-23T09:18:05.188Z,85.38
2019-03-23T09:20:34.891Z,84.15
2019-03-23T09:23:04.620Z,88.67
2019-03-23T09:25:34.262Z,89.25
2019-03-23T09:28:04.198Z,88.25
2019-03-23T09:30:33.840Z,84.30
2019-03-23T09:33:03.662Z,89.13
2019-03-23T09:35:33.338Z,88.78
2019-03-23T09:38:03.180Z,90.87
2019-03-23T09:40:32.806Z,82.33
2019-03-23T09:43:02.514Z,82.97
2019-03-23T09:45:32.123Z,81.45
2019-03-23T09:48:03.629Z,84.77
2019-03-23T09:50:33.309Z,82.47
2019-03-23T09:53:03.587Z,83.22
2019-03-23T09:55:33.234Z,77.72
2019-03-23T09:58:02.939Z,77.32
2019-03-23T10:00:32.636Z,80.67
2019-03-23T10:03:02.281Z,73.30
2019-03-23T10:05:31.985Z,80.90
2019-03-23T10:08:02.441Z,80.75
2019-03-23T10:10:32.111Z,78.45
2019-03-23T10:13:01.811Z,82.57
2019-03-23T10:15:31.456Z,88.27
2019-03-23T10:18:03.524Z,85.12
2019-03-23T10:20:33.148Z,80.70
2019-03-23T10:23:03.693Z,80.07
2019-03-23T10:25:33.300Z,86.72
2019-03-23T10:28:02.905Z,81.02
2019-03-23T10:30:32.521Z,81.57
2019-03-23T10:33:02.266Z,77.85
2019-03-23T10:35:31.932Z,76.53
2019-03-23T10:38:03.003Z,75.17
2019-03-23T10:40:33.044Z,66.80
2019-03-23T10:43:02.900Z,74.55
2019-03-23T10:45:40.064Z,84.87
2019-03-23T10:48:03.933Z,81.35
2019-03-23T10:50:33.542Z,80.75
2019-03-23T10:53:03.179Z,82.42
2019-03-23T10:55:32.784Z,82.62
2019-03-23T10:58:03.119Z,87.75
2019-03-23T11:00:32.796Z,86.82
2019-03-23T11:03:03.548Z,90.35
2019-03-23T11:05:33.142Z,86.53
2019-03-23T11:08:02.767Z,86.97
2019-03-23T11:10:41.471Z,95.80
2019-03-23T11:13:05.234Z,85.95
2019-03-23T11:15:34.840Z,84.67
2019-03-23T11:18:04.530Z,87.97
2019-03-23T11:20:34.158Z,87.12
2019-03-23T11:23:03.833Z,80.22
2019-03-23T11:25:33.607Z,85.60
2019-03-23T11:28:03.202Z,84.67
2019-03-23T11:30:32.823Z,82.53
2019-03-23T11:33:02.431Z,83.75
2019-03-23T11:35:32.110Z,84.50
2019-03-23T11:38:02.685Z,86.78
2019-03-23T11:40:32.425Z,84.72
2019-03-23T11:43:02.041Z,80.67
2019-03-23T11:45:31.727Z,86.25
2019-03-23T11:48:01.329Z,82.05
2019-03-23T11:50:31.025Z,81.75
2019-03-23T11:53:00.623Z,81.80
2019-03-23T11:55:30.328Z,83.67
2019-03-23T11:57:59.931Z,88.65
2019-03-23T12:00:29.545Z,81.50
2019-03-23T12:02:59.186Z,82.22
2019-03-23T12:05:28.792Z,86.37
2019-03-23T12:07:58.446Z,78.10
2019-03-23T12:10:28.061Z,82.90
2019-03-23T12:12:57.670Z,78.67
2019-03-23T12:15:27.272Z,82.00
2019-03-23T12:17:56.936Z,79.32
2019-03-23T12:20:26.533Z,81.50
2019-03-23T12:22:56.157Z,79.20
2019-03-23T12:25:25.787Z,83.80
2019-03-23T12:27:55.389Z,80.32
2019-03-23T12:30:25.030Z,82.97
2019-03-23T12:32:54.627Z,78.78
2019-03-23T12:35:24.248Z,79.45
2019-03-23T12:37:55.496Z,79.20
2019-03-23T12:40:25.106Z,80.12
2019-03-23T12:42:54.708Z,79.15
2019-03-23T12:45:24.319Z,78.25
2019-03-23T12:47:53.939Z,74.77
2019-03-23T12:50:23.566Z,77.55
2019-03-23T12:52:53.249Z,79.77
2019-03-23T12:55:22.975Z,74.15
2019-03-23T12:57:52.629Z,80.20
2019-03-23T13:00:22.332Z,75.10
2019-03-23T13:02:51.963Z,75.30
2019-03-23T13:05:21.631Z,79.70
2019-03-23T13:07:51.245Z,77.27
2019-03-23T13:10:20.879Z,73.05
2019-03-23T13:12:50.515Z,76.15
2019-03-23T13:15:20.159Z,76.12
2019-03-23T13:17:49.817Z,74.42
2019-03-23T13:20:19.437Z,74.20
2019-03-23T13:22:49.085Z,75.40
2019-03-23T13:25:18.737Z,74.03
2019-03-23T13:27:48.347Z,84.52
2019-03-23T13:30:18.860Z,77.65
2019-03-23T13:32:48.538Z,70.62
2019-03-23T13:35:18.132Z,71.75
2019-03-23T13:37:47.789Z,75.28
2019-03-23T13:40:17.442Z,74.03
2019-03-23T13:42:47.101Z,73.42
2019-03-23T13:45:16.983Z,75.20
2019-03-23T13:47:46.613Z,79.40
2019-03-23T13:50:21.971Z,74.10
2019-03-23T13:52:51.578Z,74.32
2019-03-23T13:55:26.374Z,73.17
2019-03-23T13:57:56.160Z,74.10
2019-03-23T14:00:25.783Z,70.15
2019-03-23T14:02:55.422Z,70.87
2019-03-23T14:05:25.057Z,69.17
2019-03-23T14:07:54.747Z,74.05
2019-03-23T14:10:24.454Z,71.92
2019-03-23T14:12:54.072Z,76.33
2019-03-23T14:15:23.779Z,73.80
2019-03-23T14:17:53.397Z,73.80
2019-03-23T14:20:23.053Z,75.22
2019-03-23T14:23:02.131Z,76.72
2019-03-23T14:25:24.032Z,71.22
2019-03-23T14:27:53.666Z,71.45
2019-03-23T14:30:23.266Z,67.08
2019-03-23T14:32:52.891Z,71.15
2019-03-23T14:35:22.511Z,68.15
2019-03-23T14:37:52.134Z,67.32
2019-03-23T14:40:21.811Z,71.97
2019-03-23T14:42:51.764Z,69.67
2019-03-23T14:45:21.611Z,74.22
2019-03-23T14:47:51.242Z,74.07
2019-03-23T14:50:20.914Z,70.42
2019-03-23T14:52:50.595Z,71.70
2019-03-23T14:55:20.257Z,69.45
2019-03-23T14:57:49.887Z,73.33
2019-03-23T15:00:25.090Z,67.30
2019-03-23T15:02:54.718Z,70.87
2019-03-23T15:05:24.371Z,75.50
2019-03-23T15:07:54.121Z,71.12
2019-03-23T15:10:23.808Z,77.87
2019-03-23T15:12:53.646Z,75.30
2019-03-23T15:15:23.251Z,73.37
2019-03-23T15:17:53.016Z,75.00
2019-03-23T15:20:22.563Z,72.72
2019-03-23T15:22:52.177Z,74.30
2019-03-23T15:25:21.860Z,97.25
2019-03-23T15:27:51.586Z,77.17
2019-03-23T15:30:21.255Z,77.92
2019-03-23T15:32:50.882Z,78.60
2019-03-23T15:35:20.584Z,72.47
2019-03-23T15:37:50.311Z,72.22
2019-03-23T15:40:19.916Z,70.05
2019-03-23T15:42:49.638Z,70.00
2019-03-23T15:45:19.227Z,74.50
2019-03-23T15:47:48.830Z,74.30
2019-03-23T15:50:18.477Z,76.02
2019-03-23T15:52:48.042Z,78.85
2019-03-23T15:55:17.690Z,67.97
2019-03-23T15:57:47.307Z,69.22
2019-03-23T16:00:17.158Z,70.83
2019-03-23T16:02:46.770Z,72.70
2019-03-23T16:05:16.459Z,68.37
2019-03-23T16:07:46.131Z,66.25
2019-03-23T16:10:15.769Z,66.57
2019-03-23T16:12:45.364Z,68.50
2019-03-23T16:15:16.223Z,62.35
2019-03-23T16:17:46.081Z,68.92
2019-03-23T16:20:17.927Z,63.73
2019-03-23T16:22:47.486Z,67.72
2019-03-23T16:25:17.119Z,61.42
2019-03-23T16:27:46.726Z,64.03
2019-03-23T16:30:19.511Z,60.08
2019-03-23T16:32:49.151Z,63.63
2019-03-23T16:35:18.774Z,64.70
2019-03-23T16:37:48.387Z,66.53
2019-03-23T16:40:18.014Z,66.45
2019-03-23T16:42:47.653Z,67.30
2019-03-23T16:45:17.560Z,65.10
2019-03-23T16:47:47.167Z,65.30
2019-03-23T16:50:16.872Z,66.80
2019-03-23T16:52:46.478Z,68.92
2019-03-23T16:55:16.116Z,62.33
2019-03-23T16:57:45.716Z,62.08
2019-03-23T17:00:20.362Z,66.20
2019-03-23T17:02:49.992Z,63.08
2019-03-23T17:05:19.678Z,65.62
2019-03-23T17:07:49.285Z,64.20
2019-03-23T17:10:18.939Z,69.22
2019-03-23T17:12:55.305Z,65.97
2019-03-23T17:15:19.935Z,68.35
2019-03-23T17:17:49.527Z,64.90
2019-03-23T17:20:19.215Z,69.60
2019-03-23T17:22:48.819Z,71.07
2019-03-23T17:25:18.825Z,65.05
2019-03-23T17:27:48.554Z,62.23
2019-03-23T17:30:19.275Z,62.45
2019-03-23T17:32:49.018Z,62.70
2019-03-23T17:35:18.712Z,57.33
2019-03-23T17:37:48.362Z,57.55
2019-03-23T17:40:18.001Z,57.75
2019-03-23T17:42:49.471Z,58.35
2019-03-23T17:45:19.170Z,54.45
2019-03-23T17:47:48.905Z,53.52
2019-03-23T17:50:18.743Z,58.95
2019-03-23T17:52:48.357Z,55.23
2019-03-23T17:55:18.207Z,56.55
2019-03-23T17:57:47.913Z,54.73
2019-03-23T18:00:17.928Z,43.80
2019-03-23T18:02:47.670Z,50.33
2019-03-23T18:05:17.278Z,45.38
2019-03-23T18:07:46.938Z,45.48
2019-03-23T18:10:19.611Z,46.68
2019-03-23T18:12:49.251Z,47.50
2019-03-23T18:15:18.954Z,44.30
2019-03-23T18:17:48.571Z,48.30
2019-03-23T18:20:18.487Z,47.50
2019-03-23T18:22:48.110Z,42.55
2019-03-23T18:25:17.792Z,42.23
2019-03-23T18:27:47.767Z,45.30
2019-03-23T18:30:34.425Z,47.95
2019-03-23T18:33:05.319Z,43.48
2019-03-23T18:35:35.144Z,45.20
2019-03-23T18:38:05.617Z,55.25
2019-03-23T18:40:35.559Z,46.13
2019-03-23T18:43:05.870Z,45.75
2019-03-23T18:45:35.772Z,47.40
2019-03-23T18:48:05.690Z,39.15
2019-03-23T18:50:35.335Z,42.00
2019-03-23T18:53:05.512Z,39.60
2019-03-23T18:55:35.115Z,38.30
2019-03-23T18:58:04.998Z,37.63
2019-03-23T19:00:37.506Z,42.98
2019-03-23T19:03:07.415Z,47.33
2019-03-23T19:05:37.226Z,43.42
2019-03-23T19:08:07.233Z,43.70
2019-03-23T19:10:37.149Z,44.73
2019-03-23T19:13:06.893Z,41.05
2019-03-23T19:15:36.487Z,43.83
2019-03-23T19:18:07.107Z,46.65
2019-03-23T19:20:38.166Z,41.42
2019-03-23T19:23:07.902Z,48.87
2019-03-23T19:25:37.615Z,39.42
2019-03-23T19:28:07.620Z,48.30
2019-03-23T19:30:37.775Z,43.83
2019-03-23T19:33:07.485Z,43.45
2019-03-23T19:35:37.223Z,46.85
2019-03-23T19:38:07.379Z,45.90
2019-03-23T19:40:37.168Z,48.68
2019-03-23T19:43:06.800Z,50.73
2019-03-23T19:45:36.438Z,60.55
2019-03-23T19:48:06.199Z,46.13
2019-03-23T19:50:35.898Z,47.05
2019-03-23T19:53:05.706Z,47.93
2019-03-23T19:55:35.351Z,46.48
2019-03-23T19:58:05.238Z,51.85
2019-03-23T20:00:34.913Z,48.40
2019-03-23T20:03:04.690Z,47.43
2019-03-23T20:05:34.498Z,48.45
2019-03-23T20:08:04.495Z,51.92
2019-03-23T20:10:34.117Z,45.48
2019-03-23T20:13:03.871Z,45.30
2019-03-23T20:15:33.652Z,52.73
2019-03-23T20:18:03.406Z,42.27
2019-03-23T20:20:33.109Z,42.83
2019-03-23T20:23:02.830Z,45.35
2019-03-23T20:25:32.666Z,47.35
2019-03-23T20:28:02.285Z,46.68
2019-03-23T20:30:32.221Z,46.35
2019-03-23T20:33:01.839Z,55.05
2019-03-23T20:35:31.557Z,52.98
2019-03-23T20:38:03.632Z,49.53
2019-03-23T20:40:33.409Z,51.13
2019-03-23T20:43:03.117Z,45.08
2019-03-23T20:45:32.940Z,42.30
2019-03-23T20:48:03.072Z,40.88
2019-03-23T20:50:32.877Z,39.35
2019-03-23T20:53:03.162Z,37.10
2019-03-23T20:55:32.878Z,34.92
2019-03-23T20:58:03.349Z,36.15
2019-03-23T21:00:32.964Z,34.70
2019-03-23T21:03:03.694Z,42.08
2019-03-23T21:05:34.378Z,29.35
2019-03-23T21:08:04.187Z,26.02
2019-03-23T21:10:33.826Z,28.83
2019-03-23T21:13:03.446Z,28.95
2019-03-23T21:15:33.172Z,27.35
2019-03-23T21:18:02.833Z,27.77
2019-03-23T21:20:32.456Z,22.93
2019-03-23T21:23:02.353Z,23.20
2019-03-23T21:25:33.479Z,24.27
2019-03-23T21:28:03.171Z,16.55
2019-03-23T21:30:32.952Z,23.80
2019-03-23T21:33:02.691Z,26.73
2019-03-23T21:35:32.314Z,22.58
2019-03-23T21:38:02.340Z,18.73
2019-03-23T21:40:34.858Z,29.02
2019-03-23T21:43:03.441Z,21.65
2019-03-23T21:45:33.107Z,18.50
2019-03-23T21:48:02.713Z,20.75
2019-03-23T21:50:32.421Z,24.87
2019-03-23T21:53:02.180Z,25.00
2019-03-23T21:55:31.795Z,19.27
2019-03-23T21:58:01.471Z,20.97
2019-03-23T22:00:33.602Z,20.00
2019-03-23T22:03:03.911Z,19.20
2019-03-23T22:05:33.659Z,22.00
2019-03-23T22:08:03.252Z,27.98
2019-03-23T22:10:33.351Z,18.98
2019-03-23T22:13:03.018Z,17.60
2019-03-23T22:15:34.023Z,19.77
2019-03-23T22:18:05.341Z,15.28
2019-03-23T22:20:34.957Z,23.50
2019-03-23T22:23:05.161Z,22.30
2019-03-23T22:25:34.939Z,21.62
2019-03-23T22:28:04.666Z,18.95
2019-03-23T22:30:34.333Z,14.00
2019-03-23T22:33:04.043Z,22.05
2019-03-23T22:35:33.673Z,21.10
2019-03-23T22:38:03.292Z,18.75
2019-03-23T22:40:32.986Z,21.30
2019-03-23T22:43:04.176Z,22.35
2019-03-23T22:45:35.746Z,20.00
2019-03-23T22:48:05.136Z,21.60
2019-03-23T22:50:34.750Z,19.25
2019-03-23T22:53:04.746Z,19.20
2019-03-23T22:55:34.360Z,16.52
2019-03-23T22:58:04.073Z,29.12
2019-03-23T23:00:44.105Z,24.12
2019-03-23T23:03:13.879Z,20.75
2019-03-23T23:05:44.128Z,21.62
2019-03-23T23:08:13.815Z,21.42
2019-03-23T23:10:43.496Z,22.22
2019-03-23T23:13:13.179Z,20.45
2019-03-23T23:15:42.871Z,22.87
2019-03-23T23:18:12.458Z,22.52
2019-03-23T23:20:42.065Z,19.80
2019-03-23T23:23:11.733Z,18.73
2019-03-23T23:25:41.414Z,21.12
2019-03-23T23:28:11.110Z,23.52
2019-03-23T23:30:40.702Z,20.92
2019-03-23T23:33:10.331Z,20.50
2019-03-23T23:35:39.926Z,20.15
2019-03-23T23:38:09.571Z,18.37
2019-03-23T23:40:39.177Z,20.32
2019-03-23T23:43:08.846Z,23.15
2019-03-23T23:45:38.471Z,27.70
2019-03-23T23:48:08.092Z,24.37
2019-03-23T23:50:37.707Z,20.30
2019-03-23T23:53:07.315Z,23.05
2019-03-23T23:55:36.918Z,18.70
2019-03-23T23:58:06.521Z,27.95
